createdAt,value
2023-08-29T00:01:14.163Z,100.00
2023-08-29T00:03:22.613Z,100.00
2023-08-29T00:05:27.873Z,100.00
2023-08-29T00:07:32.977Z,100.00
2023-08-29T00:09:38.314Z,100.00
2023-08-29T00:11:43.289Z,100.00
2023-08-29T00:13:48.401Z,100.00
2023-08-29T00:15:56.705Z,100.00
2023-08-29T00:17:59.167Z,100.00
2023-08-29T00:20:07.779Z,100.00
2023-08-29T00:22:10.348Z,100.00
2023-08-29T00:24:17.957Z,100.00
2023-08-29T00:26:22.943Z,100.00
2023-08-29T00:28:28.344Z,100.00
2023-08-29T00:30:37.005Z,100.00
2023-08-29T00:32:42.486Z,100.00
2023-08-29T00:34:47.423Z,100.00
2023-08-29T00:36:58.508Z,100.00
2023-08-29T00:39:05.020Z,100.00
2023-08-29T00:41:12.260Z,100.00
2023-08-29T00:43:17.279Z,100.00
2023-08-29T00:45:22.227Z,100.00
2023-08-29T00:47:27.256Z,100.00
2023-08-29T00:49:32.487Z,100.00
2023-08-29T00:51:37.488Z,100.00
2023-08-29T00:53:44.977Z,100.00
2023-08-29T00:55:51.160Z,100.00
2023-08-29T00:57:57.632Z,100.00
2023-08-29T01:00:02.877Z,100.00
2023-08-29T01:02:08.999Z,100.00
2023-08-29T01:04:11.529Z,100.00
2023-08-29T01:06:17.978Z,100.00
2023-08-29T01:08:24.900Z,100.00
2023-08-29T01:10:40.399Z,100.00
2023-08-29T01:13:00.181Z,100.00
2023-08-29T01:15:12.651Z,100.00
2023-08-29T01:17:27.099Z,100.00
2023-08-29T01:19:33.001Z,100.00
2023-08-29T01:21:48.423Z,100.00
2023-08-29T01:24:08.348Z,100.00
2023-08-29T01:26:17.837Z,100.00
2023-08-29T01:28:24.862Z,100.00
2023-08-29T01:30:30.613Z,100.00
2023-08-29T01:32:36.345Z,100.00
2023-08-29T01:34:43.541Z,100.00
2023-08-29T01:36:49.397Z,100.00
2023-08-29T01:38:56.925Z,100.00
2023-08-29T01:41:01.853Z,100.00
2023-08-29T01:43:09.566Z,100.00
2023-08-29T01:45:12.079Z,100.00
2023-08-29T01:47:20.215Z,100.00
2023-08-29T01:49:28.610Z,100.00
2023-08-29T01:51:34.062Z,100.00
2023-08-29T01:53:40.460Z,100.00
2023-08-29T01:55:48.219Z,100.00
2023-08-29T01:57:58.910Z,100.00
2023-08-29T02:00:06.897Z,100.00
2023-08-29T02:02:11.988Z,100.00
2023-08-29T02:04:17.068Z,100.00
2023-08-29T02:06:19.638Z,100.00
2023-08-29T02:08:24.897Z,100.00
2023-08-29T02:10:32.205Z,100.00
2023-08-29T02:12:37.199Z,100.00
2023-08-29T02:14:45.213Z,100.00
2023-08-29T02:16:52.945Z,100.00
2023-08-29T02:18:57.914Z,100.00
2023-08-29T02:21:00.575Z,100.00
2023-08-29T02:23:05.824Z,100.00
2023-08-29T02:25:12.120Z,100.00
2023-08-29T02:27:17.212Z,100.00
2023-08-29T02:29:22.063Z,100.00
2023-08-29T02:31:27.070Z,100.00
2023-08-29T02:33:39.816Z,100.00
2023-08-29T02:35:44.922Z,100.00
2023-08-29T02:37:49.879Z,100.00
2023-08-29T02:39:55.466Z,100.00
2023-08-29T02:42:01.338Z,100.00
2023-08-29T02:44:07.197Z,100.00
2023-08-29T02:46:12.592Z,100.00
2023-08-29T02:48:14.944Z,100.00
2023-08-29T02:50:22.706Z,100.00
2023-08-29T02:52:27.837Z,100.00
2023-08-29T02:54:32.814Z,100.00
2023-08-29T02:56:37.620Z,100.00
2023-08-29T02:58:46.254Z,100.00
2023-08-29T03:00:51.609Z,100.00
2023-08-29T03:02:59.203Z,100.00
2023-08-29T03:05:04.378Z,100.00
2023-08-29T03:07:11.751Z,100.00
2023-08-29T03:09:16.497Z,100.00
2023-08-29T03:11:21.906Z,100.00
2023-08-29T03:13:28.330Z,100.00
2023-08-29T03:15:35.676Z,100.00
2023-08-29T03:17:40.812Z,100.00
2023-08-29T03:20:51.209Z,100.00
2023-08-29T03:22:44.403Z,100.00
2023-08-29T03:24:47.472Z,100.00
2023-08-29T03:26:52.834Z,100.00
2023-08-29T03:29:01.289Z,100.00
2023-08-29T03:31:16.047Z,100.00
2023-08-29T03:33:21.213Z,100.00
2023-08-29T03:35:28.253Z,100.00
2023-08-29T03:37:33.128Z,100.00
2023-08-29T03:39:40.552Z,100.00
2023-08-29T03:41:45.598Z,100.00
2023-08-29T03:43:50.867Z,100.00
2023-08-29T03:46:01.010Z,100.00
2023-08-29T03:48:12.688Z,100.00
2023-08-29T03:50:22.618Z,100.00
2023-08-29T03:52:31.955Z,100.00
2023-08-29T03:54:36.906Z,100.00
2023-08-29T03:56:44.856Z,100.00
2023-08-29T03:58:50.773Z,100.00
2023-08-29T04:00:57.295Z,100.00
2023-08-29T04:03:02.172Z,100.00
2023-08-29T04:05:16.399Z,100.00
2023-08-29T04:07:19.572Z,100.00
2023-08-29T04:09:27.096Z,100.00
2023-08-29T04:11:32.032Z,100.00
2023-08-29T04:13:39.558Z,100.00
2023-08-29T04:15:45.040Z,100.00
2023-08-29T04:17:50.341Z,100.00
2023-08-29T04:19:58.682Z,100.00
2023-08-29T04:22:04.400Z,100.00
2023-08-29T04:24:10.323Z,100.00
2023-08-29T04:26:15.260Z,100.00
2023-08-29T04:28:21.746Z,100.00
2023-08-29T04:30:29.521Z,100.00
2023-08-29T04:32:38.747Z,100.00
2023-08-29T04:34:44.096Z,100.00
2023-08-29T04:36:49.451Z,100.00
2023-08-29T04:38:56.861Z,100.00
2023-08-29T04:41:01.949Z,100.00
2023-08-29T04:43:10.123Z,100.00
2023-08-29T04:45:15.816Z,100.00
2023-08-29T04:47:23.438Z,100.00
2023-08-29T04:49:31.992Z,100.00
2023-08-29T04:51:37.348Z,100.00
2023-08-29T04:53:42.566Z,100.00
2023-08-29T04:55:44.894Z,100.00
2023-08-29T04:57:50.405Z,100.00
2023-08-29T04:59:59.087Z,100.00
2023-08-29T05:02:04.128Z,100.00
2023-08-29T05:04:11.920Z,100.00
2023-08-29T05:06:16.980Z,100.00
2023-08-29T05:08:22.436Z,100.00
2023-08-29T05:10:27.693Z,100.00
2023-08-29T05:12:32.928Z,100.00
2023-08-29T05:14:35.462Z,100.00
2023-08-29T05:16:40.613Z,100.00
2023-08-29T05:18:45.646Z,100.00
2023-08-29T05:20:55.610Z,100.00
2023-08-29T05:23:04.025Z,100.00
2023-08-29T05:25:12.590Z,100.00
2023-08-29T05:27:17.745Z,100.00
2023-08-29T05:29:22.880Z,100.00
2023-08-29T05:31:27.994Z,100.00
2023-08-29T05:33:33.690Z,100.00
2023-08-29T05:35:38.792Z,100.00
2023-08-29T05:37:46.931Z,100.00
2023-08-29T05:39:52.549Z,100.00
2023-08-29T05:42:00.223Z,100.00
2023-08-29T05:44:02.872Z,100.00
2023-08-29T05:46:09.971Z,100.00
2023-08-29T05:48:14.971Z,100.00
2023-08-29T05:50:20.230Z,100.00
2023-08-29T05:52:26.540Z,100.00
2023-08-29T05:54:37.789Z,100.00
2023-08-29T05:56:42.855Z,100.00
2023-08-29T05:58:47.882Z,100.00
2023-08-29T06:00:53.155Z,100.00
2023-08-29T06:03:00.001Z,100.00
2023-08-29T06:05:07.682Z,100.00
2023-08-29T06:07:12.791Z,100.00
2023-08-29T06:09:17.840Z,100.00
2023-08-29T06:11:27.358Z,100.00
2023-08-29T06:13:32.325Z,100.00
2023-08-29T06:15:37.236Z,100.00
2023-08-29T06:17:42.378Z,100.00
2023-08-29T06:19:47.398Z,100.00
2023-08-29T06:21:52.665Z,100.00
2023-08-29T06:23:57.740Z,100.00
2023-08-29T06:26:04.568Z,100.00
2023-08-29T06:28:12.299Z,100.00
2023-08-29T06:30:18.070Z,100.00
2023-08-29T06:32:22.917Z,100.00
2023-08-29T06:34:34.160Z,100.00
2023-08-29T06:36:39.224Z,100.00
2023-08-29T06:38:44.375Z,100.00
2023-08-29T06:40:49.715Z,100.00
2023-08-29T06:42:58.444Z,100.00
2023-08-29T06:45:10.025Z,100.00
2023-08-29T06:47:15.284Z,100.00
2023-08-29T06:49:20.290Z,100.00
2023-08-29T06:51:27.777Z,100.00
2023-08-29T06:53:32.941Z,100.00
2023-08-29T06:55:38.860Z,100.00
2023-08-29T06:57:44.237Z,100.00
2023-08-29T06:59:49.538Z,100.00
2023-08-29T07:01:57.240Z,100.00
2023-08-29T07:04:02.409Z,100.00
2023-08-29T07:06:08.170Z,100.00
2023-08-29T07:08:13.772Z,100.00
2023-08-29T07:10:18.931Z,100.00
2023-08-29T07:12:26.081Z,100.00
2023-08-29T07:14:34.484Z,100.00
2023-08-29T07:16:39.592Z,100.00
2023-08-29T07:18:47.739Z,99.05
2023-08-29T07:20:53.176Z,99.64
2023-08-29T07:23:00.861Z,97.83
2023-08-29T07:25:07.043Z,94.81
2023-08-29T07:27:14.020Z,95.44
2023-08-29T07:29:20.805Z,93.46
2023-08-29T07:31:26.220Z,90.98
2023-08-29T07:33:31.753Z,87.75
2023-08-29T07:35:40.373Z,87.83
2023-08-29T07:37:45.637Z,85.57
2023-08-29T07:39:51.108Z,85.88
2023-08-29T07:41:56.282Z,84.27
2023-08-29T07:44:01.254Z,84.67
2023-08-29T07:46:10.317Z,82.54
2023-08-29T07:48:15.436Z,83.41
2023-08-29T07:50:20.456Z,81.52
2023-08-29T07:52:30.556Z,76.60
2023-08-29T07:54:35.518Z,78.64
2023-08-29T07:56:37.891Z,79.83
2023-08-29T07:58:42.810Z,79.74
2023-08-29T08:00:47.813Z,79.62
2023-08-29T08:02:53.033Z,79.96
2023-08-29T08:05:00.852Z,79.99
2023-08-29T08:07:05.897Z,79.12
2023-08-29T08:09:14.348Z,80.01
2023-08-29T08:11:19.388Z,80.47
2023-08-29T08:13:22.484Z,78.92
2023-08-29T08:15:27.597Z,76.59
2023-08-29T08:17:35.835Z,77.19
2023-08-29T08:19:41.106Z,73.37
2023-08-29T08:21:46.674Z,76.11
2023-08-29T08:23:53.343Z,76.97
2023-08-29T08:26:03.886Z,77.38
2023-08-29T08:28:09.966Z,78.49
2023-08-29T08:30:15.453Z,77.23
2023-08-29T08:32:21.232Z,77.20
2023-08-29T08:34:26.296Z,75.52
2023-08-29T08:36:32.288Z,73.12
2023-08-29T08:38:37.290Z,71.85
2023-08-29T08:40:44.069Z,72.12
2023-08-29T08:42:57.873Z,71.33
2023-08-29T08:45:06.274Z,71.07
2023-08-29T08:47:15.505Z,69.00
2023-08-29T08:49:21.768Z,68.81
2023-08-29T08:51:31.856Z,68.28
2023-08-29T08:53:37.791Z,67.23
2023-08-29T08:55:43.002Z,67.99
2023-08-29T08:57:48.090Z,67.88
2023-08-29T08:59:58.936Z,69.40
2023-08-29T09:02:04.172Z,70.00
2023-08-29T09:04:09.694Z,70.31
2023-08-29T09:06:15.086Z,71.42
2023-08-29T09:08:17.576Z,69.86
2023-08-29T09:10:23.191Z,70.73
2023-08-29T09:12:31.658Z,70.68
2023-08-29T09:14:40.211Z,71.09
2023-08-29T09:16:48.328Z,69.71
2023-08-29T09:18:57.220Z,67.53
2023-08-29T09:21:03.258Z,68.81
2023-08-29T09:23:24.508Z,65.88
2023-08-29T09:25:32.521Z,62.11
2023-08-29T09:27:43.819Z,60.76
2023-08-29T09:29:48.988Z,57.92
2023-08-29T09:31:59.047Z,61.77
2023-08-29T09:34:05.731Z,57.13
2023-08-29T09:36:11.633Z,57.67
2023-08-29T09:38:17.221Z,54.79
2023-08-29T09:42:31.877Z,57.76
2023-08-29T09:44:39.927Z,57.42
2023-08-29T09:46:48.095Z,55.60
2023-08-29T09:49:01.380Z,54.83
2023-08-29T09:51:07.178Z,51.77
2023-08-29T09:53:12.543Z,51.64
2023-08-29T09:55:18.458Z,51.11
2023-08-29T09:57:26.261Z,52.10
2023-08-29T09:59:33.658Z,50.72
2023-08-29T10:01:41.051Z,49.73
2023-08-29T10:03:47.930Z,51.88
2023-08-29T10:06:00.153Z,52.47
2023-08-29T10:08:31.195Z,52.40
2023-08-29T10:10:36.330Z,53.67
2023-08-29T10:12:42.089Z,52.25
2023-08-29T10:14:45.553Z,52.96
2023-08-29T10:16:53.789Z,51.44
2023-08-29T10:19:02.768Z,49.68
2023-08-29T10:21:11.110Z,50.01
2023-08-29T10:23:17.423Z,52.08
2023-08-29T10:25:25.523Z,52.65
2023-08-29T10:27:30.601Z,52.76
2023-08-29T10:29:36.332Z,53.74
2023-08-29T10:31:42.577Z,52.98
2023-08-29T10:33:52.372Z,55.48
2023-08-29T10:35:57.281Z,55.56
2023-08-29T10:38:14.589Z,57.25
2023-08-29T10:40:20.746Z,57.73
2023-08-29T10:42:51.310Z,58.00
2023-08-29T10:44:56.693Z,56.96
2023-08-29T10:47:17.828Z,56.37
2023-08-29T10:49:25.787Z,58.16
2023-08-29T10:51:30.708Z,56.47
2023-08-29T10:53:43.702Z,56.11
2023-08-29T10:56:02.795Z,56.29
2023-08-29T10:58:36.178Z,56.81
2023-08-29T11:00:58.337Z,56.18
2023-08-29T11:03:06.161Z,56.08
2023-08-29T11:05:18.454Z,56.79
2023-08-29T11:07:29.075Z,54.60
2023-08-29T11:09:45.531Z,54.46
2023-08-29T11:12:09.920Z,55.42
2023-08-29T11:14:15.586Z,54.95
2023-08-29T11:16:20.957Z,55.13
2023-08-29T11:18:28.202Z,54.94
2023-08-29T11:23:06.949Z,57.98
2023-08-29T11:25:14.779Z,56.78
2023-08-29T11:27:22.471Z,55.17
2023-08-29T11:29:32.098Z,54.37
2023-08-29T11:31:44.496Z,54.07
2023-08-29T11:33:50.981Z,54.78
2023-08-29T11:35:57.980Z,58.64
2023-08-29T11:38:00.442Z,59.82
2023-08-29T11:40:11.191Z,60.30
2023-08-29T11:43:20.858Z,59.93
2023-08-29T11:45:44.069Z,60.62
2023-08-29T11:47:18.360Z,61.76
2023-08-29T11:49:20.637Z,61.19
2023-08-29T11:51:28.781Z,61.73
2023-08-29T11:53:38.005Z,60.86
2023-08-29T11:55:42.948Z,60.45
2023-08-29T11:57:54.214Z,61.40
2023-08-29T12:00:02.097Z,59.36
2023-08-29T12:02:07.164Z,59.74
2023-08-29T12:04:12.101Z,60.09
2023-08-29T12:06:17.608Z,61.38
2023-08-29T12:08:37.459Z,60.29
2023-08-29T12:10:56.560Z,60.94
2023-08-29T12:13:14.521Z,61.48
2023-08-29T12:15:30.757Z,61.85
2023-08-29T12:17:45.753Z,62.38
2023-08-29T12:19:51.119Z,62.44
2023-08-29T12:22:00.818Z,63.68
2023-08-29T12:24:10.989Z,63.36
2023-08-29T12:26:16.929Z,62.68
2023-08-29T12:28:21.911Z,63.44
2023-08-29T12:30:27.009Z,64.19
2023-08-29T12:32:33.297Z,63.58
2023-08-29T12:34:35.616Z,61.92
2023-08-29T12:36:41.397Z,61.29
2023-08-29T12:38:46.374Z,61.02
2023-08-29T12:40:51.988Z,61.71
2023-08-29T12:42:57.701Z,61.95
2023-08-29T12:45:05.649Z,61.16
2023-08-29T12:47:10.726Z,61.67
2023-08-29T12:49:15.734Z,61.04
2023-08-29T12:51:20.571Z,61.10
2023-08-29T12:53:28.783Z,60.79
2023-08-29T12:55:34.345Z,60.32
2023-08-29T12:57:39.401Z,60.87
2023-08-29T12:59:44.629Z,61.36
2023-08-29T13:01:52.269Z,59.71
2023-08-29T13:04:00.303Z,59.82
2023-08-29T13:06:05.416Z,60.75
2023-08-29T13:08:11.200Z,59.68
2023-08-29T13:10:18.018Z,60.28
2023-08-29T13:12:27.752Z,59.57
2023-08-29T13:14:38.600Z,60.19
2023-08-29T13:16:44.274Z,60.66
2023-08-29T13:18:54.969Z,60.32
2023-08-29T13:21:00.395Z,61.56
2023-08-29T13:23:05.810Z,59.83
2023-08-29T13:25:13.662Z,61.06
2023-08-29T13:27:22.584Z,60.43
2023-08-29T13:29:28.272Z,60.61
2023-08-29T13:31:33.503Z,59.77
2023-08-29T13:33:39.056Z,59.45
2023-08-29T13:35:49.709Z,59.49
2023-08-29T13:37:55.265Z,59.59
2023-08-29T13:40:00.636Z,59.65
2023-08-29T13:42:02.922Z,60.25
2023-08-29T13:44:08.472Z,59.55
2023-08-29T13:46:14.710Z,59.91
2023-08-29T13:48:19.903Z,59.54
2023-08-29T13:50:26.664Z,59.13
2023-08-29T13:52:34.556Z,59.34
2023-08-29T13:54:40.075Z,59.39
2023-08-29T13:56:45.673Z,59.06
2023-08-29T13:58:51.134Z,59.28
2023-08-29T14:00:57.171Z,59.44
2023-08-29T14:03:02.178Z,59.23
2023-08-29T14:05:10.682Z,58.78
2023-08-29T14:07:17.269Z,57.85
2023-08-29T14:09:27.231Z,57.79
2023-08-29T14:11:40.941Z,58.49
2023-08-29T14:13:45.843Z,57.62
2023-08-29T14:15:51.011Z,57.82
2023-08-29T14:17:58.657Z,57.04
2023-08-29T14:20:06.480Z,54.64
2023-08-29T14:22:11.461Z,56.29
2023-08-29T14:24:16.490Z,56.43
2023-08-29T14:26:24.063Z,56.79
2023-08-29T14:28:32.222Z,57.73
2023-08-29T14:30:37.334Z,55.77
2023-08-29T14:32:42.732Z,56.70
2023-08-29T14:34:47.769Z,57.94
2023-08-29T14:36:52.891Z,56.18
2023-08-29T14:39:01.750Z,55.95
2023-08-29T14:41:10.629Z,56.87
2023-08-29T14:43:18.229Z,55.62
2023-08-29T14:45:23.234Z,57.43
2023-08-29T14:47:28.663Z,55.49
2023-08-29T14:49:33.839Z,55.58
2023-08-29T14:51:39.827Z,56.00
2023-08-29T14:53:42.384Z,56.25
2023-08-29T14:55:47.129Z,57.12
2023-08-29T14:57:52.247Z,54.98
2023-08-29T15:00:00.114Z,57.55
2023-08-29T15:02:05.634Z,57.91
2023-08-29T15:04:10.599Z,55.72
2023-08-29T15:06:16.775Z,57.43
2023-08-29T15:08:25.214Z,54.96
2023-08-29T15:10:31.926Z,54.58
2023-08-29T15:12:36.916Z,55.02
2023-08-29T15:14:39.335Z,54.21
2023-08-29T15:16:48.407Z,54.65
2023-08-29T15:18:55.172Z,54.60
2023-08-29T15:21:00.045Z,55.76
2023-08-29T15:23:06.883Z,55.73
2023-08-29T15:25:15.227Z,56.72
2023-08-29T15:27:20.279Z,55.61
2023-08-29T15:29:25.499Z,56.04
2023-08-29T15:31:30.659Z,57.20
2023-08-29T15:33:40.146Z,56.99
2023-08-29T15:35:49.697Z,57.91
2023-08-29T15:37:52.089Z,58.08
2023-08-29T15:39:57.506Z,57.77
2023-08-29T15:42:00.105Z,56.39
2023-08-29T15:44:04.991Z,57.23
2023-08-29T15:46:10.670Z,56.54
2023-08-29T15:48:13.056Z,57.58
2023-08-29T15:50:20.767Z,57.09
2023-08-29T15:52:25.872Z,57.75
2023-08-29T15:54:30.836Z,58.22
2023-08-29T15:56:35.759Z,59.04
2023-08-29T15:58:40.928Z,58.31
2023-08-29T16:00:46.112Z,57.25
2023-08-29T16:02:53.458Z,57.68
2023-08-29T16:05:02.545Z,57.49
2023-08-29T16:07:10.686Z,57.44
2023-08-29T16:09:16.238Z,57.46
2023-08-29T16:11:21.403Z,58.42
2023-08-29T16:13:33.943Z,57.25
2023-08-29T16:15:39.321Z,56.92
2023-08-29T16:17:44.504Z,57.73
2023-08-29T16:19:49.616Z,56.37
2023-08-29T16:21:56.971Z,57.10
2023-08-29T16:24:04.797Z,56.47
2023-08-29T16:26:23.408Z,56.87
2023-08-29T16:28:32.432Z,57.36
2023-08-29T16:30:35.432Z,56.95
2023-08-29T16:32:46.642Z,57.38
2023-08-29T16:34:52.148Z,57.89
2023-08-29T16:37:00.058Z,58.00
2023-08-29T16:39:10.927Z,57.97
2023-08-29T16:41:16.252Z,58.59
2023-08-29T16:43:26.922Z,58.30
2023-08-29T16:45:36.091Z,58.66
2023-08-29T16:47:41.292Z,59.36
2023-08-29T16:50:04.948Z,59.34
2023-08-29T16:52:10.360Z,59.85
2023-08-29T16:54:18.337Z,59.37
2023-08-29T16:56:23.500Z,59.43
2023-08-29T16:58:42.998Z,59.76
2023-08-29T17:00:58.564Z,59.75
2023-08-29T17:03:11.556Z,60.63
2023-08-29T17:05:21.647Z,59.81
2023-08-29T17:07:35.666Z,59.17
2023-08-29T17:09:48.976Z,60.31
2023-08-29T17:11:54.231Z,61.84
2023-08-29T17:14:04.490Z,60.75
2023-08-29T17:16:11.307Z,61.09
2023-08-29T17:18:17.084Z,62.01
2023-08-29T17:20:23.436Z,62.03
2023-08-29T17:22:29.378Z,61.40
2023-08-29T17:24:35.000Z,61.59
2023-08-29T17:26:43.156Z,61.79
2023-08-29T17:28:48.198Z,62.58
2023-08-29T17:31:02.076Z,62.32
2023-08-29T17:33:12.397Z,62.91
2023-08-29T17:35:41.275Z,63.38
2023-08-29T17:37:46.411Z,63.20
2023-08-29T17:39:52.203Z,63.39
2023-08-29T17:42:03.420Z,63.23
2023-08-29T17:44:08.909Z,64.08
2023-08-29T17:46:14.009Z,64.36
2023-08-29T17:48:18.901Z,64.90
2023-08-29T17:50:40.406Z,65.18
2023-08-29T17:52:52.725Z,64.37
2023-08-29T17:54:57.534Z,65.00
2023-08-29T17:57:05.166Z,66.03
2023-08-29T17:59:11.488Z,66.12
2023-08-29T18:01:13.889Z,66.20
2023-08-29T18:03:19.347Z,66.59
2023-08-29T18:05:25.474Z,66.66
2023-08-29T18:07:30.761Z,66.52
2023-08-29T18:09:35.847Z,66.86
2023-08-29T18:11:40.868Z,67.41
2023-08-29T18:13:48.578Z,67.37
2023-08-29T18:15:57.027Z,67.72
2023-08-29T18:18:03.419Z,68.01
2023-08-29T18:20:10.432Z,68.18
2023-08-29T18:22:13.121Z,68.40
2023-08-29T18:24:17.982Z,68.34
2023-08-29T18:26:23.161Z,69.15
2023-08-29T18:28:32.643Z,69.11
2023-08-29T18:30:40.637Z,69.84
2023-08-29T18:32:49.096Z,70.18
2023-08-29T18:34:54.242Z,70.14
2023-08-29T18:37:01.497Z,70.52
2023-08-29T18:39:09.451Z,71.93
2023-08-29T18:41:14.461Z,71.51
2023-08-29T18:43:19.591Z,72.04
2023-08-29T18:45:25.000Z,71.65
2023-08-29T18:47:32.779Z,71.83
2023-08-29T18:49:37.676Z,72.20
2023-08-29T18:51:42.737Z,72.65
2023-08-29T18:53:47.750Z,73.14
2023-08-29T18:55:53.153Z,73.18
2023-08-29T18:57:58.264Z,73.54
2023-08-29T19:00:03.459Z,73.97
2023-08-29T19:02:08.586Z,73.88
2023-08-29T19:04:19.095Z,74.04
2023-08-29T19:06:24.208Z,74.36
2023-08-29T19:08:32.157Z,73.72
2023-08-29T19:10:37.356Z,73.08
2023-08-29T19:12:42.376Z,72.84
2023-08-29T19:14:49.758Z,72.84
2023-08-29T19:16:57.652Z,73.71
2023-08-29T19:19:05.294Z,73.27
2023-08-29T19:21:13.461Z,73.14
2023-08-29T19:23:18.377Z,73.67
2023-08-29T19:25:25.135Z,73.37
2023-08-29T19:27:32.052Z,73.46
2023-08-29T19:29:37.288Z,73.23
2023-08-29T19:31:43.104Z,73.44
2023-08-29T19:33:48.186Z,73.52
2023-08-29T19:35:55.329Z,73.66
2023-08-29T19:38:03.096Z,73.72
2023-08-29T19:40:09.220Z,73.73
2023-08-29T19:42:14.122Z,74.47
2023-08-29T19:44:19.849Z,74.37
2023-08-29T19:46:25.280Z,74.52
2023-08-29T19:48:31.049Z,74.77
2023-08-29T19:50:36.322Z,75.05
2023-08-29T19:52:42.552Z,75.21
2023-08-29T19:54:50.324Z,75.31
2023-08-29T19:56:57.185Z,75.54
2023-08-29T19:59:04.545Z,75.41
2023-08-29T20:01:10.005Z,75.86
2023-08-29T20:03:15.072Z,76.46
2023-08-29T20:05:20.556Z,76.39
2023-08-29T20:07:26.972Z,76.60
2023-08-29T20:09:34.609Z,77.15
2023-08-29T20:11:44.855Z,77.25
2023-08-29T20:13:50.794Z,77.15
2023-08-29T20:15:58.872Z,77.34
2023-08-29T20:18:04.003Z,77.25
2023-08-29T20:20:11.617Z,77.67
2023-08-29T20:22:16.440Z,77.50
2023-08-29T20:24:25.155Z,76.94
2023-08-29T20:26:28.240Z,76.71
2023-08-29T20:28:35.941Z,77.16
2023-08-29T20:30:41.954Z,76.58
2023-08-29T20:32:50.482Z,77.54
2023-08-29T20:34:56.526Z,76.47
2023-08-29T20:37:02.228Z,76.76
2023-08-29T20:39:11.391Z,76.71
2023-08-29T20:41:17.822Z,76.50
2023-08-29T20:43:23.587Z,76.94
2023-08-29T20:45:35.991Z,76.70
2023-08-29T20:47:46.508Z,76.84
2023-08-29T20:49:53.008Z,76.94
2023-08-29T20:52:12.080Z,77.15
2023-08-29T20:54:17.683Z,77.89
2023-08-29T20:56:27.288Z,77.94
2023-08-29T20:59:15.815Z,78.04
2023-08-29T21:01:28.114Z,78.79
2023-08-29T21:03:36.970Z,78.48
2023-08-29T21:05:44.720Z,78.44
2023-08-29T21:07:51.803Z,78.79
2023-08-29T21:09:57.502Z,79.63
2023-08-29T21:12:03.495Z,79.73
2023-08-29T21:14:09.748Z,78.81
2023-08-29T21:16:20.358Z,79.85
2023-08-29T21:18:32.617Z,81.38
2023-08-29T21:20:38.586Z,80.87
2023-08-29T21:22:58.243Z,81.36
2023-08-29T21:25:07.422Z,81.59
2023-08-29T21:27:16.414Z,80.92
2023-08-29T21:29:18.693Z,81.58
2023-08-29T21:31:28.145Z,81.47
2023-08-29T21:33:36.407Z,82.03
2023-08-29T21:35:51.314Z,81.39
2023-08-29T21:37:56.530Z,81.35
2023-08-29T21:40:01.787Z,82.26
2023-08-29T21:42:07.654Z,82.00
2023-08-29T21:44:14.316Z,83.12
2023-08-29T21:46:20.303Z,82.54
2023-08-29T21:48:30.695Z,82.86
2023-08-29T21:50:46.495Z,82.90
2023-08-29T21:52:55.614Z,83.53
2023-08-29T21:55:03.858Z,84.02
2023-08-29T21:57:12.320Z,83.59
2023-08-29T21:59:18.291Z,84.05
2023-08-29T22:03:43.404Z,84.13
2023-08-29T22:05:58.087Z,85.67
2023-08-29T22:08:33.809Z,85.55
2023-08-29T22:13:15.421Z,85.39
2023-08-29T22:15:40.304Z,85.16
2023-08-29T22:18:35.068Z,85.40
2023-08-29T22:23:33.856Z,85.98
2023-08-29T22:26:06.072Z,86.85
2023-08-29T22:28:12.076Z,85.24
2023-08-29T22:30:37.912Z,85.44
2023-08-29T22:32:47.200Z,86.02
2023-08-29T22:35:19.426Z,86.03
2023-08-29T22:37:28.917Z,86.53
2023-08-29T22:42:38.992Z,87.18
2023-08-29T22:45:05.403Z,86.70
2023-08-29T22:48:17.408Z,85.65
2023-08-29T22:50:27.483Z,85.74
2023-08-29T22:52:33.991Z,86.13
2023-08-29T22:54:43.155Z,85.99
2023-08-29T22:57:01.503Z,85.59
2023-08-29T22:59:07.343Z,85.32
2023-08-29T23:01:13.856Z,85.93
2023-08-29T23:03:19.381Z,85.79
2023-08-29T23:05:28.607Z,85.44
2023-08-29T23:07:37.333Z,85.38
2023-08-29T23:09:45.993Z,84.98
2023-08-29T23:11:55.347Z,85.23
2023-08-29T23:14:02.337Z,84.60
2023-08-29T23:16:09.294Z,85.67
2023-08-29T23:18:21.764Z,84.99
2023-08-29T23:20:58.903Z,84.71
2023-08-29T23:23:15.989Z,84.38
2023-08-29T23:27:08.638Z,84.16
2023-08-29T23:29:50.336Z,83.98
2023-08-29T23:31:33.748Z,84.41
2023-08-29T23:33:52.177Z,83.57
2023-08-29T23:36:04.458Z,83.57
2023-08-29T23:38:10.556Z,84.06
2023-08-29T23:40:51.145Z,83.42
2023-08-29T23:43:01.749Z,84.03
2023-08-29T23:45:10.056Z,83.01
2023-08-29T23:47:15.926Z,83.48
2023-08-29T23:49:22.784Z,83.65
2023-08-29T23:51:32.954Z,84.07
2023-08-29T23:53:45.252Z,84.40
2023-08-29T23:55:59.871Z,84.88
2023-08-29T23:58:05.525Z,84.50
